createdAt,value
2023-05-10T00:00:10.094Z,101008.59
2023-05-10T00:02:36.897Z,101012.88
2023-05-10T00:05:03.740Z,101016.38
2023-05-10T00:07:30.181Z,101014.63
2023-05-10T00:09:56.603Z,101010.31
2023-05-10T00:12:23.141Z,101011.16
2023-05-10T00:14:49.503Z,101008.66
2023-05-10T00:17:16.044Z,101008.72
2023-05-10T00:19:42.483Z,100999.28
2023-05-10T00:22:08.909Z,101003.59
2023-05-10T00:24:35.476Z,101003.69
2023-05-10T00:27:01.937Z,101004.47
2023-05-10T00:29:29.327Z,101001.03
2023-05-10T00:31:55.825Z,101001.91
2023-05-10T00:34:22.275Z,101001.00
2023-05-10T00:36:48.828Z,101005.22
2023-05-10T00:39:15.402Z,100995.75
2023-05-10T00:41:41.789Z,100999.19
2023-05-10T00:44:08.251Z,100996.56
2023-05-10T00:46:35.465Z,101010.31
2023-05-10T00:49:02.159Z,100999.38
2023-05-10T00:51:28.836Z,100992.63
2023-05-10T00:53:57.000Z,101001.22
2023-05-10T00:56:25.382Z,100998.72
2023-05-10T00:58:51.982Z,100999.53
2023-05-10T01:01:18.505Z,101002.91
2023-05-10T01:03:45.380Z,101005.50
2023-05-10T01:06:12.263Z,101006.50
2023-05-10T01:08:38.799Z,101003.94
2023-05-10T01:11:05.318Z,101002.22
2023-05-10T01:13:37.154Z,101009.94
2023-05-10T01:16:04.438Z,101007.59
2023-05-10T01:18:34.066Z,101005.91
2023-05-10T01:21:13.216Z,101006.78
2023-05-10T01:24:18.625Z,101012.66
2023-05-10T01:26:51.648Z,101014.19
2023-05-10T01:30:14.637Z,100998.88
2023-05-10T01:32:58.784Z,101000.63
2023-05-10T01:35:28.309Z,101001.44
2023-05-10T01:38:16.302Z,101009.09
2023-05-10T01:41:03.229Z,101007.44
2023-05-10T01:43:37.994Z,101009.06
2023-05-10T01:46:11.960Z,101006.44
2023-05-10T01:48:48.491Z,101015.84
2023-05-10T01:51:23.899Z,101007.31
2023-05-10T01:53:52.655Z,101010.72
2023-05-10T01:56:24.981Z,101009.16
2023-05-10T01:58:52.812Z,101006.50
2023-05-10T02:01:22.475Z,101004.00
2023-05-10T02:03:51.897Z,101006.53
2023-05-10T02:06:23.041Z,101006.53
2023-05-10T02:08:51.477Z,101010.84
2023-05-10T02:11:19.350Z,101009.16
2023-05-10T02:13:48.358Z,101010.97
2023-05-10T02:16:17.247Z,101017.81
2023-05-10T02:18:44.141Z,101006.59
2023-05-10T02:21:11.822Z,101015.25
2023-05-10T02:23:38.959Z,101023.84
2023-05-10T02:26:07.194Z,101014.41
2023-05-10T02:28:36.091Z,101023.81
2023-05-10T02:31:03.553Z,101023.94
2023-05-10T02:33:32.517Z,101024.13
2023-05-10T02:36:00.003Z,101025.91
2023-05-10T02:38:27.770Z,101027.66
2023-05-10T02:40:55.052Z,101029.28
2023-05-10T02:43:24.110Z,101036.25
2023-05-10T02:45:50.741Z,101043.22
2023-05-10T02:48:17.776Z,101044.16
2023-05-10T02:50:46.185Z,101040.63
2023-05-10T02:53:17.422Z,101044.00
2023-05-10T02:55:50.148Z,101042.63
2023-05-10T02:58:16.570Z,101045.41
2023-05-10T03:00:42.955Z,101042.22
2023-05-10T03:03:09.410Z,101049.22
2023-05-10T03:05:35.965Z,101049.22
2023-05-10T03:08:05.093Z,101053.75
2023-05-10T03:10:33.486Z,101049.75
2023-05-10T03:13:17.537Z,101047.16
2023-05-10T03:15:57.836Z,101048.84
2023-05-10T03:18:30.576Z,101049.78
2023-05-10T03:21:02.716Z,101058.25
2023-05-10T03:23:36.744Z,101055.84
2023-05-10T03:26:03.907Z,101059.19
2023-05-10T03:28:31.621Z,101057.59
2023-05-10T03:30:59.842Z,101061.06
2023-05-10T03:33:26.367Z,101066.09
2023-05-10T03:35:52.999Z,101066.94
2023-05-10T03:38:19.465Z,101065.25
2023-05-10T03:40:46.034Z,101063.56
2023-05-10T03:43:12.372Z,101056.72
2023-05-10T03:45:38.880Z,101056.66
2023-05-10T03:48:06.073Z,101053.03
2023-05-10T03:50:32.638Z,101057.28
2023-05-10T03:52:59.115Z,101056.34
2023-05-10T03:55:25.752Z,101064.88
2023-05-10T03:57:52.171Z,101064.19
2023-05-10T04:00:18.953Z,101054.72
2023-05-10T04:02:46.334Z,101062.44
2023-05-10T04:05:13.591Z,101059.75
2023-05-10T04:07:40.255Z,101064.81
2023-05-10T04:10:07.378Z,101063.13
2023-05-10T04:12:33.823Z,101069.84
2023-05-10T04:15:00.404Z,101068.31
2023-05-10T04:17:26.821Z,101064.00
2023-05-10T04:19:55.558Z,101069.25
2023-05-10T04:22:22.008Z,101071.75
2023-05-10T04:24:48.419Z,101069.16
2023-05-10T04:27:15.286Z,101070.88
2023-05-10T04:29:42.460Z,101070.94
2023-05-10T04:32:09.009Z,101066.53
2023-05-10T04:34:35.404Z,101070.03
2023-05-10T04:37:01.959Z,101069.16
2023-05-10T04:39:28.371Z,101065.69
2023-05-10T04:41:54.784Z,101067.38
2023-05-10T04:44:21.218Z,101060.38
2023-05-10T04:46:47.784Z,101071.63
2023-05-10T04:49:15.281Z,101070.00
2023-05-10T04:51:41.718Z,101081.84
2023-05-10T04:54:08.105Z,101075.91
2023-05-10T04:56:34.809Z,101087.03
2023-05-10T04:59:01.416Z,101089.50
2023-05-10T05:01:28.048Z,101090.31
2023-05-10T05:03:54.748Z,101082.47
2023-05-10T05:06:25.806Z,101086.69
2023-05-10T05:08:52.436Z,101090.13
2023-05-10T05:11:18.988Z,101091.63
2023-05-10T05:13:45.457Z,101098.47
2023-05-10T05:16:12.418Z,101095.00
2023-05-10T05:18:39.225Z,101102.66
2023-05-10T05:21:16.070Z,101099.03
2023-05-10T05:23:42.479Z,101107.59
2023-05-10T05:26:09.304Z,101106.69
2023-05-10T05:28:38.156Z,101111.00
2023-05-10T05:31:05.674Z,101107.53
2023-05-10T05:33:32.347Z,101108.22
2023-05-10T05:36:01.736Z,101114.25
2023-05-10T05:38:28.135Z,101120.38
2023-05-10T05:40:54.487Z,101115.13
2023-05-10T05:43:20.817Z,101116.81
2023-05-10T05:45:47.328Z,101117.59
2023-05-10T05:48:13.735Z,101124.34
2023-05-10T05:50:40.114Z,101120.03
2023-05-10T05:53:06.536Z,101130.31
2023-05-10T05:55:33.100Z,101126.91
2023-05-10T05:57:59.588Z,101130.41
2023-05-10T06:00:26.781Z,101138.13
2023-05-10T06:02:53.336Z,101141.53
2023-05-10T06:05:21.170Z,101140.69
2023-05-10T06:07:47.613Z,101141.69
2023-05-10T06:10:14.186Z,101148.53
2023-05-10T06:12:40.648Z,101145.19
2023-05-10T06:15:07.738Z,101147.75
2023-05-10T06:17:34.235Z,101152.28
2023-05-10T06:20:00.675Z,101151.66
2023-05-10T06:22:27.082Z,101157.66
2023-05-10T06:24:53.689Z,101166.13
2023-05-10T06:27:20.098Z,101167.06
2023-05-10T06:29:46.526Z,101162.69
2023-05-10T06:32:12.915Z,101151.56
2023-05-10T06:34:39.339Z,101157.41
2023-05-10T06:37:05.882Z,101163.13
2023-05-10T06:39:32.265Z,101160.34
2023-05-10T06:41:58.697Z,101165.63
2023-05-10T06:44:25.150Z,101163.84
2023-05-10T06:46:53.517Z,101163.06
2023-05-10T06:49:20.055Z,101162.91
2023-05-10T06:51:46.488Z,101167.03
2023-05-10T06:54:12.841Z,101173.03
2023-05-10T06:56:39.438Z,101174.81
2023-05-10T06:59:05.970Z,101177.34
2023-05-10T07:01:32.406Z,101184.88
2023-05-10T07:03:58.857Z,101179.56
2023-05-10T07:06:33.306Z,101181.25
2023-05-10T07:09:01.324Z,101190.59
2023-05-10T07:11:27.952Z,101189.66
2023-05-10T07:13:54.293Z,101188.72
2023-05-10T07:16:20.957Z,101195.34
2023-05-10T07:18:47.362Z,101191.03
2023-05-10T07:21:13.888Z,101191.94
2023-05-10T07:23:41.311Z,101198.88
2023-05-10T07:26:08.694Z,101197.28
2023-05-10T07:28:37.638Z,101197.44
2023-05-10T07:31:04.340Z,101210.22
2023-05-10T07:33:30.741Z,101209.22
2023-05-10T07:35:57.420Z,101212.50
2023-05-10T07:38:24.351Z,101212.19
2023-05-10T07:40:50.717Z,101216.50
2023-05-10T07:43:17.146Z,101218.88
2023-05-10T07:45:44.189Z,101224.63
2023-05-10T07:48:10.892Z,101218.16
2023-05-10T07:50:37.389Z,101220.44
2023-05-10T07:53:03.789Z,101226.31
2023-05-10T07:55:30.626Z,101226.97
2023-05-10T07:57:57.749Z,101230.34
2023-05-10T08:00:24.109Z,101229.34
2023-05-10T08:02:50.678Z,101232.94
2023-05-10T08:05:17.435Z,101235.78
2023-05-10T08:07:44.047Z,101235.03
2023-05-10T08:10:12.126Z,101247.06
2023-05-10T08:12:39.266Z,101247.94
2023-05-10T08:15:06.554Z,101242.88
2023-05-10T08:17:33.502Z,101247.88
2023-05-10T08:19:59.954Z,101246.25
2023-05-10T08:22:27.031Z,101252.25
2023-05-10T08:24:53.410Z,101255.47
2023-05-10T08:27:19.856Z,101257.81
2023-05-10T08:29:50.093Z,101256.69
2023-05-10T08:32:16.991Z,101256.56
2023-05-10T08:34:43.467Z,101258.22
2023-05-10T08:37:11.452Z,101268.63
2023-05-10T08:39:38.453Z,101272.19
2023-05-10T08:42:05.683Z,101272.75
2023-05-10T08:44:35.175Z,101275.22
2023-05-10T08:47:05.609Z,101277.47
2023-05-10T08:49:33.745Z,101280.84
2023-05-10T08:52:04.564Z,101288.69
2023-05-10T08:54:33.049Z,101283.47
2023-05-10T08:56:59.599Z,101291.00
2023-05-10T08:59:26.194Z,101289.06
2023-05-10T09:01:54.902Z,101290.53
2023-05-10T09:04:21.964Z,101291.69
2023-05-10T09:06:48.888Z,101285.00
2023-05-10T09:09:17.086Z,101285.63
2023-05-10T09:11:44.462Z,101282.03
2023-05-10T09:14:13.331Z,101288.38
2023-05-10T09:16:40.761Z,101288.91
2023-05-10T09:19:08.301Z,101292.75
2023-05-10T09:21:39.071Z,101287.84
2023-05-10T09:24:06.401Z,101297.66
2023-05-10T09:26:32.846Z,101301.94
2023-05-10T09:29:01.176Z,101293.16
2023-05-10T09:31:47.804Z,101298.69
2023-05-10T09:34:21.969Z,101299.00
2023-05-10T09:36:53.031Z,101302.47
2023-05-10T09:39:19.604Z,101300.28
2023-05-10T09:41:45.968Z,101307.50
2023-05-10T09:44:12.393Z,101306.38
2023-05-10T09:46:39.018Z,101311.31
2023-05-10T09:49:06.501Z,101317.84
2023-05-10T09:51:35.058Z,101318.81
2023-05-10T09:54:14.661Z,101323.34
2023-05-10T09:56:42.056Z,101325.59
2023-05-10T09:59:13.096Z,101327.41
2023-05-10T10:01:40.299Z,101334.94
2023-05-10T10:04:10.023Z,101332.81
2023-05-10T10:06:40.856Z,101330.47
2023-05-10T10:09:08.447Z,101332.28
2023-05-10T10:11:37.304Z,101330.47
2023-05-10T10:14:03.847Z,101332.75
2023-05-10T10:16:31.440Z,101333.66
2023-05-10T10:18:58.450Z,101330.31
2023-05-10T10:21:26.087Z,101340.66
2023-05-10T10:23:52.694Z,101333.63
2023-05-10T10:26:23.757Z,101339.34
2023-05-10T10:29:03.921Z,101339.13
2023-05-10T10:31:48.270Z,101340.66
2023-05-10T10:34:41.480Z,101338.63
2023-05-10T10:37:08.097Z,101347.84
2023-05-10T10:39:37.615Z,101350.56
2023-05-10T10:42:05.597Z,101351.31
2023-05-10T10:44:34.461Z,101350.88
2023-05-10T10:47:14.140Z,101354.84
2023-05-10T10:49:58.601Z,101351.22
2023-05-10T10:52:39.273Z,101350.38
2023-05-10T10:55:13.650Z,101346.88
2023-05-10T10:57:48.510Z,101342.81
2023-05-10T11:00:29.329Z,101344.84
2023-05-10T11:03:03.527Z,101348.44
2023-05-10T11:05:30.046Z,101347.88
2023-05-10T11:07:58.486Z,101349.03
2023-05-10T11:10:25.813Z,101344.84
2023-05-10T11:13:02.099Z,101350.72
2023-05-10T11:15:36.725Z,101354.69
2023-05-10T11:18:29.595Z,101353.88
2023-05-10T11:21:03.611Z,101356.03
2023-05-10T11:23:49.118Z,101353.81
2023-05-10T11:26:16.359Z,101349.69
2023-05-10T11:28:47.191Z,101349.16
2023-05-10T11:31:18.934Z,101346.69
2023-05-10T11:33:45.985Z,101343.94
2023-05-10T11:36:17.807Z,101345.34
2023-05-10T11:38:44.620Z,101349.19
2023-05-10T11:41:13.248Z,101355.44
2023-05-10T11:43:41.026Z,101352.19
2023-05-10T11:46:10.500Z,101343.25
2023-05-10T11:48:37.699Z,101349.03
2023-05-10T11:51:04.192Z,101352.97
2023-05-10T11:53:32.865Z,101352.69
2023-05-10T11:56:07.497Z,101359.25
2023-05-10T11:58:34.824Z,101352.31
2023-05-10T12:01:01.703Z,101358.88
2023-05-10T12:03:29.183Z,101359.19
2023-05-10T12:05:56.994Z,101362.47
2023-05-10T12:08:25.887Z,101366.50
2023-05-10T12:10:53.125Z,101369.63
2023-05-10T12:13:21.452Z,101364.50
2023-05-10T12:15:49.038Z,101364.38
2023-05-10T12:18:16.079Z,101362.91
2023-05-10T12:20:42.609Z,101358.13
2023-05-10T12:23:10.870Z,101366.50
2023-05-10T12:25:38.778Z,101365.84
2023-05-10T12:28:10.018Z,101364.94
2023-05-10T12:30:37.405Z,101358.16
2023-05-10T12:33:16.076Z,101367.78
2023-05-10T12:35:48.434Z,101360.34
2023-05-10T12:38:35.509Z,101351.72
2023-05-10T12:41:10.873Z,101354.16
2023-05-10T12:43:38.143Z,101349.75
2023-05-10T12:46:09.307Z,101355.28
2023-05-10T12:48:37.255Z,101353.34
2023-05-10T12:51:04.688Z,101358.88
2023-05-10T12:53:31.367Z,101359.22
2023-05-10T12:55:58.251Z,101360.78
2023-05-10T12:58:34.933Z,101361.19
2023-05-10T13:01:02.514Z,101370.28
2023-05-10T13:03:28.909Z,101371.03
2023-05-10T13:05:55.561Z,101374.97
2023-05-10T13:08:22.004Z,101368.88
2023-05-10T13:10:48.708Z,101383.69
2023-05-10T13:13:16.062Z,101385.47
2023-05-10T13:15:42.647Z,101391.22
2023-05-10T13:18:09.283Z,101401.59
2023-05-10T13:20:35.980Z,101400.25
2023-05-10T13:23:03.504Z,101404.19
2023-05-10T13:25:30.118Z,101411.34
2023-05-10T13:27:56.459Z,101404.25
2023-05-10T13:30:23.058Z,101410.81
2023-05-10T13:32:49.480Z,101415.91
2023-05-10T13:35:16.491Z,101422.94
2023-05-10T13:37:42.944Z,101429.91
2023-05-10T13:40:09.633Z,101435.16
2023-05-10T13:42:36.017Z,101434.56
2023-05-10T13:45:02.752Z,101444.50
2023-05-10T13:47:29.182Z,101438.34
2023-05-10T13:49:55.588Z,101442.63
2023-05-10T13:52:22.115Z,101443.94
2023-05-10T13:54:48.569Z,101438.13
2023-05-10T13:57:15.045Z,101444.13
2023-05-10T13:59:41.418Z,101438.38
2023-05-10T14:02:07.805Z,101437.78
2023-05-10T14:04:36.313Z,101439.78
2023-05-10T14:07:02.864Z,101432.19
2023-05-10T14:09:29.265Z,101440.63
2023-05-10T14:11:56.802Z,101438.16
2023-05-10T14:14:23.153Z,101436.47
2023-05-10T14:16:49.692Z,101442.78
2023-05-10T14:19:16.255Z,101435.06
2023-05-10T14:21:42.662Z,101442.66
2023-05-10T14:24:10.108Z,101446.00
2023-05-10T14:26:36.618Z,101447.25
2023-05-10T14:29:03.218Z,101442.00
2023-05-10T14:31:31.206Z,101444.50
2023-05-10T14:33:58.651Z,101443.50
2023-05-10T14:36:27.327Z,101442.50
2023-05-10T14:38:53.701Z,101447.53
2023-05-10T14:41:20.221Z,101444.13
2023-05-10T14:43:46.920Z,101436.09
2023-05-10T14:46:13.686Z,101445.47
2023-05-10T14:48:40.327Z,101441.81
2023-05-10T14:51:07.374Z,101434.13
2023-05-10T14:53:33.810Z,101438.22
2023-05-10T14:56:03.880Z,101437.06
2023-05-10T14:58:34.018Z,101437.69
2023-05-10T15:01:00.834Z,101438.41
2023-05-10T15:03:27.924Z,101437.41
2023-05-10T15:05:54.870Z,101450.91
2023-05-10T15:08:21.643Z,101437.63
2023-05-10T15:10:48.585Z,101432.84
2023-05-10T15:13:15.169Z,101435.91
2023-05-10T15:15:41.649Z,101441.53
2023-05-10T15:18:08.104Z,101436.81
2023-05-10T15:20:34.653Z,101436.38
2023-05-10T15:23:01.544Z,101433.28
2023-05-10T15:25:28.668Z,101431.94
2023-05-10T15:27:55.350Z,101429.72
2023-05-10T15:30:22.247Z,101430.19
2023-05-10T15:32:48.599Z,101433.44
2023-05-10T15:35:15.412Z,101432.41
2023-05-10T15:37:41.902Z,101439.09
2023-05-10T15:40:08.678Z,101439.75
2023-05-10T15:42:35.172Z,101436.28
2023-05-10T15:45:01.625Z,101432.75
2023-05-10T15:47:31.156Z,101437.69
2023-05-10T15:49:57.549Z,101440.03
2023-05-10T15:52:24.319Z,101451.41
2023-05-10T15:54:51.236Z,101452.34
2023-05-10T15:57:17.781Z,101450.44
2023-05-10T15:59:44.281Z,101452.44
2023-05-10T16:02:13.276Z,101454.28
2023-05-10T16:04:39.697Z,101453.38
2023-05-10T16:07:06.187Z,101459.59
2023-05-10T16:09:32.658Z,101457.97
2023-05-10T16:11:59.056Z,101456.41
2023-05-10T16:14:25.460Z,101459.47
2023-05-10T16:16:52.227Z,101472.94
2023-05-10T16:19:18.997Z,101459.06
2023-05-10T16:21:45.483Z,101465.00
2023-05-10T16:24:12.116Z,101465.41
2023-05-10T16:26:40.977Z,101474.81
2023-05-10T16:29:10.494Z,101461.44
2023-05-10T16:31:36.961Z,101475.31
2023-05-10T16:34:03.445Z,101474.41
2023-05-10T16:36:31.157Z,101467.25
2023-05-10T16:38:57.557Z,101473.81
2023-05-10T16:41:23.988Z,101475.00
2023-05-10T16:43:50.458Z,101475.28
2023-05-10T16:46:17.092Z,101474.50
2023-05-10T16:48:43.829Z,101474.50
2023-05-10T16:51:10.226Z,101474.94
2023-05-10T16:53:36.614Z,101470.25
2023-05-10T16:56:04.275Z,101468.50
2023-05-10T16:58:30.752Z,101468.38
2023-05-10T17:00:57.205Z,101469.28
2023-05-10T17:03:23.704Z,101466.13
2023-05-10T17:05:50.478Z,101466.25
2023-05-10T17:08:17.143Z,101464.19
2023-05-10T17:10:43.666Z,101466.25
2023-05-10T17:13:10.859Z,101469.50
2023-05-10T17:15:38.553Z,101462.59
2023-05-10T17:18:05.453Z,101474.31
2023-05-10T17:20:31.953Z,101474.50
2023-05-10T17:22:58.488Z,101483.41
2023-05-10T17:25:25.019Z,101486.44
2023-05-10T17:27:51.439Z,101489.56
2023-05-10T17:30:22.582Z,101490.81
2023-05-10T17:32:49.264Z,101496.25
2023-05-10T17:35:16.243Z,101506.50
2023-05-10T17:37:44.135Z,101499.16
2023-05-10T17:40:11.454Z,101505.13
2023-05-10T17:42:37.915Z,101499.41
2023-05-10T17:45:04.887Z,101508.53
2023-05-10T17:47:31.396Z,101512.16
2023-05-10T17:49:57.787Z,101508.78
2023-05-10T17:52:24.166Z,101518.78
2023-05-10T17:54:50.580Z,101522.41
2023-05-10T17:57:17.294Z,101523.69
2023-05-10T17:59:43.736Z,101525.13
2023-05-10T18:02:10.306Z,101526.81
2023-05-10T18:04:39.839Z,101524.63
2023-05-10T18:07:06.680Z,101525.94
2023-05-10T18:09:34.093Z,101526.53
2023-05-10T18:12:03.981Z,101528.63
2023-05-10T18:14:39.758Z,101527.09
2023-05-10T18:17:08.384Z,101523.78
2023-05-10T18:19:34.932Z,101534.28
2023-05-10T18:22:01.321Z,101528.66
2023-05-10T18:24:39.277Z,101534.44
2023-05-10T18:27:08.738Z,101528.94
2023-05-10T18:29:36.257Z,101535.38
2023-05-10T18:32:02.854Z,101537.50
2023-05-10T18:34:29.314Z,101535.44
2023-05-10T18:36:56.255Z,101528.66
2023-05-10T18:39:22.770Z,101535.16
2023-05-10T18:41:50.141Z,101531.97
2023-05-10T18:44:16.713Z,101533.78
2023-05-10T18:46:43.401Z,101537.41
2023-05-10T18:49:09.981Z,101527.97
2023-05-10T18:51:36.548Z,101536.84
2023-05-10T18:54:03.506Z,101543.97
2023-05-10T18:56:30.038Z,101545.06
2023-05-10T18:58:56.568Z,101545.25
2023-05-10T19:01:22.998Z,101550.56
2023-05-10T19:03:49.423Z,101544.56
2023-05-10T19:06:15.914Z,101551.59
2023-05-10T19:08:42.392Z,101555.19
2023-05-10T19:11:09.070Z,101550.16
2023-05-10T19:13:35.598Z,101553.63
2023-05-10T19:16:15.958Z,101547.78
2023-05-10T19:18:44.073Z,101555.53
2023-05-10T19:21:11.452Z,101558.22
2023-05-10T19:23:40.306Z,101562.72
2023-05-10T19:26:07.115Z,101557.75
2023-05-10T19:28:34.901Z,101560.41
2023-05-10T19:31:01.717Z,101568.22
2023-05-10T19:33:28.707Z,101567.59
2023-05-10T19:35:55.553Z,101573.00
2023-05-10T19:38:23.159Z,101582.44
2023-05-10T19:40:58.139Z,101583.44
2023-05-10T19:43:25.954Z,101586.03
2023-05-10T19:45:52.859Z,101575.84
2023-05-10T19:48:19.349Z,101581.91
2023-05-10T19:50:45.892Z,101584.59
2023-05-10T19:53:12.432Z,101583.75
2023-05-10T19:55:39.028Z,101580.34
2023-05-10T19:58:05.719Z,101583.06
2023-05-10T20:00:32.248Z,101581.59
2023-05-10T20:02:58.829Z,101584.22
2023-05-10T20:05:25.614Z,101591.97
2023-05-10T20:07:52.145Z,101592.03
2023-05-10T20:10:19.055Z,101588.63
2023-05-10T20:12:51.277Z,101590.41
2023-05-10T20:15:20.095Z,101593.09
2023-05-10T20:17:47.497Z,101591.47
2023-05-10T20:20:15.837Z,101594.97
2023-05-10T20:22:45.207Z,101596.78
2023-05-10T20:25:12.377Z,101606.44
2023-05-10T20:27:38.973Z,101609.06
2023-05-10T20:30:06.250Z,101604.94
2023-05-10T20:32:33.100Z,101605.13
2023-05-10T20:34:59.989Z,101611.97
2023-05-10T20:37:28.039Z,101606.00
2023-05-10T20:39:55.000Z,101607.72
2023-05-10T20:42:22.362Z,101609.63
2023-05-10T20:44:49.367Z,101608.75
2023-05-10T20:47:16.253Z,101610.50
2023-05-10T20:49:42.977Z,101607.88
2023-05-10T20:52:09.769Z,101610.44
2023-05-10T20:54:36.186Z,101618.19
2023-05-10T20:57:02.893Z,101607.00
2023-05-10T20:59:29.400Z,101617.28
2023-05-10T21:01:57.308Z,101615.66
2023-05-10T21:04:24.592Z,101611.50
2023-05-10T21:06:51.436Z,101617.56
2023-05-10T21:09:17.926Z,101611.56
2023-05-10T21:11:44.418Z,101611.78
2023-05-10T21:14:10.935Z,101604.78
2023-05-10T21:16:37.580Z,101603.91
2023-05-10T21:19:04.128Z,101604.78
2023-05-10T21:21:31.041Z,101606.47
2023-05-10T21:23:57.507Z,101613.38
2023-05-10T21:26:24.215Z,101611.78
2023-05-10T21:28:50.658Z,101607.59
2023-05-10T21:31:17.195Z,101608.34
2023-05-10T21:33:43.756Z,101602.31
2023-05-10T21:36:10.468Z,101597.22
2023-05-10T21:38:36.986Z,101600.66
2023-05-10T21:41:07.856Z,101606.00
2023-05-10T21:43:34.160Z,101601.84
2023-05-10T21:46:01.013Z,101594.22
2023-05-10T21:48:27.543Z,101596.09
2023-05-10T21:50:53.981Z,101598.78
2023-05-10T21:53:20.601Z,101604.13
2023-05-10T21:55:48.115Z,101605.06
2023-05-10T21:58:14.618Z,101603.38
2023-05-10T22:00:41.018Z,101604.31
2023-05-10T22:03:07.470Z,101599.16
2023-05-10T22:05:34.311Z,101604.47
2023-05-10T22:08:00.980Z,101601.09
2023-05-10T22:10:27.546Z,101603.66
2023-05-10T22:12:53.997Z,101609.59
2023-05-10T22:15:20.511Z,101606.31
2023-05-10T22:17:47.001Z,101620.06
2023-05-10T22:20:13.795Z,101621.00
2023-05-10T22:22:40.289Z,101617.72
2023-05-10T22:25:07.751Z,101616.91
2023-05-10T22:27:34.560Z,101613.41
2023-05-10T22:30:01.530Z,101610.00
2023-05-10T22:32:28.391Z,101611.72
2023-05-10T22:34:55.087Z,101613.41
2023-05-10T22:37:21.527Z,101615.16
2023-05-10T22:39:48.561Z,101617.78
2023-05-10T22:42:15.247Z,101619.47
2023-05-10T22:44:42.741Z,101613.47
2023-05-10T22:47:09.411Z,101623.09
2023-05-10T22:49:36.114Z,101619.72
2023-05-10T22:52:02.776Z,101619.72
2023-05-10T22:54:29.217Z,101622.22
2023-05-10T22:56:56.501Z,101622.31
2023-05-10T22:59:23.401Z,101616.28
2023-05-10T23:01:50.095Z,101623.19
2023-05-10T23:04:16.576Z,101623.13
2023-05-10T23:06:43.174Z,101624.06
2023-05-10T23:09:09.723Z,101621.50
2023-05-10T23:11:36.141Z,101621.53
2023-05-10T23:14:02.734Z,101630.19
2023-05-10T23:16:29.546Z,101628.69
2023-05-10T23:18:56.156Z,101621.03
2023-05-10T23:21:22.715Z,101628.75
2023-05-10T23:23:49.330Z,101627.03
2023-05-10T23:26:16.256Z,101628.75
2023-05-10T23:28:42.655Z,101636.59
2023-05-10T23:31:09.192Z,101629.81
2023-05-10T23:33:35.668Z,101634.03
2023-05-10T23:36:02.195Z,101630.59
2023-05-10T23:38:28.673Z,101637.38
2023-05-10T23:40:55.117Z,101635.63
2023-05-10T23:43:21.832Z,101631.25
2023-05-10T23:45:55.221Z,101634.69
2023-05-10T23:48:21.858Z,101632.13
2023-05-10T23:50:48.469Z,101634.72
2023-05-10T23:53:15.286Z,101635.47
2023-05-10T23:55:42.287Z,101632.84
2023-05-10T23:58:08.767Z,101630.28
